Helena — SCGL — position and weather

sailwx.info

Track history (hours):
 
Tides and Currents Weather Stations Pressure Air Temp Water Temp Dewpoint Dewpoint Depression Visibility Wind Speed Wind Dir Waves Ship Positions

Helena

Last reported at 2014-Dec-21 09:33 UTC. Time now 2014-Dec-21 09:58 UTC.
Position N 54°36' E 012°15'.

Length 169 m; draft 7.2 m.

Type: Cargo ship. MMSI: 265145000.

Date/timePositionNaut miles runAvg speedWind from/ knotsBaromVisibWave heightAir tempDewpointWater temp
2014-Dec-21 09:33N 54°36' E 012°15'1312.8
2014-Dec-21 08:32N 54°44' E 012°33'1412.7
2014-Dec-21 07:28N 54°50' E 012°54'1313.0
2014-Dec-21 06:29N 54°53' E 013°16'1213.0
2014-Dec-21 05:33N 54°58' E 013°35'1313.2
2014-Dec-21 04:33N 55°02' E 013°57'1312.7
2014-Dec-21 03:33N 55°10' E 014°14'1413.6
2014-Dec-21 02:33N 55°21' E 014°29'1313.0
2014-Dec-21 01:33N 55°29' E 014°46'1312.9
2014-Dec-21 00:33N 55°36' E 015°06'1413.2
2014-Dec-20 23:31N 55°42' E 015°27'  
2014-Dec-16 04:30N 55°35' E 015°17'1616.7
2014-Dec-16 03:32N 55°28' E 014°52'1717.1
2014-Dec-16 02:33N 55°16' E 014°30'1717.4
2014-Dec-16 01:33N 55°03' E 014°12'1515.4
2014-Dec-16 00:33N 54°56' E 013°47'5116.5
2014-Dec-15 21:26N 54°35' E 012°26'1416.2
2014-Dec-15 20:33N 54°24' E 012°09'1312.5
2014-Dec-15 19:33N 54°20' E 011°49'2412.1
2014-Dec-15 17:33N 54°07' E 011°14'1010.0
2014-Dec-15 16:33N 54°01' E 010°60'8 8.2
2014-Dec-15 15:33N 53°55' E 010°52'3 2.8
2014-Dec-15 14:33N 53°54' E 010°47'0 0.0
2014-Dec-15 13:33N 53°54' E 010°47'0 0.0
2014-Dec-15 12:33N 53°54' E 010°47'0 0.0
2014-Dec-15 11:33N 53°54' E 010°47'0 0.0
2014-Dec-15 10:33N 53°54' E 010°47'20 0.8
2014-Dec-14 09:08N 54°08' E 011°11'914.4
2014-Dec-14 08:30N 54°13' E 011°23'1713.8
2014-Dec-14 07:15N 54°23' E 011°48'1312.4
2014-Dec-14 06:14N 54°27' E 012°08'7713.5
2014-Dec-14 00:33N 55°04' E 014°04'1414.4
2014-Dec-13 23:34N 55°15' E 014°21'1414.2
2014-Dec-13 22:33N 55°26' E 014°36'1414.1
2014-Dec-13 21:33N 55°33' E 014°57'1514.0
2014-Dec-13 20:31N 55°40' E 015°20'  
Track history (hours):
 
Tides and Currents Weather Stations Pressure Air Temp Water Temp Dewpoint Dewpoint Depression Visibility Wind Speed Wind Dir Waves Ship Positions

Helena

Last reported at 2014-Dec-21 09:33 UTC. Time now 2014-Dec-21 09:58 UTC.
Position N 54°36' E 012°15'.

Length 169 m; draft 7.2 m.

Type: Cargo ship. MMSI: 265145000.

Date/timePositionNaut miles runAvg speedWind from/ knotsBaromVisibWave heightAir tempDewpointWater temp
2014-Dec-21 09:33N 54°36' E 012°15'1312.8
2014-Dec-21 08:32N 54°44' E 012°33'1412.7
2014-Dec-21 07:28N 54°50' E 012°54'1313.0
2014-Dec-21 06:29N 54°53' E 013°16'1213.0
2014-Dec-21 05:33N 54°58' E 013°35'1313.2
2014-Dec-21 04:33N 55°02' E 013°57'1312.7
2014-Dec-21 03:33N 55°10' E 014°14'1413.6
2014-Dec-21 02:33N 55°21' E 014°29'1313.0
2014-Dec-21 01:33N 55°29' E 014°46'1312.9
2014-Dec-21 00:33N 55°36' E 015°06'1413.2
2014-Dec-20 23:31N 55°42' E 015°27'  
2014-Dec-16 04:30N 55°35' E 015°17'1616.7
2014-Dec-16 03:32N 55°28' E 014°52'1717.1
2014-Dec-16 02:33N 55°16' E 014°30'1717.4
2014-Dec-16 01:33N 55°03' E 014°12'1515.4
2014-Dec-16 00:33N 54°56' E 013°47'5116.5
2014-Dec-15 21:26N 54°35' E 012°26'1416.2
2014-Dec-15 20:33N 54°24' E 012°09'1312.5
2014-Dec-15 19:33N 54°20' E 011°49'2412.1
2014-Dec-15 17:33N 54°07' E 011°14'1010.0
2014-Dec-15 16:33N 54°01' E 010°60'8 8.2
2014-Dec-15 15:33N 53°55' E 010°52'3 2.8
2014-Dec-15 14:33N 53°54' E 010°47'0 0.0
2014-Dec-15 13:33N 53°54' E 010°47'0 0.0
2014-Dec-15 12:33N 53°54' E 010°47'0 0.0
2014-Dec-15 11:33N 53°54' E 010°47'0 0.0
2014-Dec-15 10:33N 53°54' E 010°47'20 0.8
2014-Dec-14 09:08N 54°08' E 011°11'914.4
2014-Dec-14 08:30N 54°13' E 011°23'1713.8
2014-Dec-14 07:15N 54°23' E 011°48'1312.4
2014-Dec-14 06:14N 54°27' E 012°08'7713.5
2014-Dec-14 00:33N 55°04' E 014°04'1414.4
2014-Dec-13 23:34N 55°15' E 014°21'1414.2
2014-Dec-13 22:33N 55°26' E 014°36'1414.1
2014-Dec-13 21:33N 55°33' E 014°57'1514.0
2014-Dec-13 20:31N 55°40' E 015°20'  

Dump ship's entire track history